sensor_id;sensor_type;location;lat;lon;timestamp;P1;durP1;ratioP1;P2;durP2;ratioP2
78838;SDS011;68405;47.190;27.558;2023-05-07T07:35:39;3.20;;;1.70;;
78838;SDS011;68405;47.190;27.558;2023-05-07T07:38:08;4.00;;;2.00;;
78838;SDS011;68405;47.190;27.558;2023-05-07T07:40:37;3.50;;;2.00;;
78838;SDS011;68405;47.190;27.558;2023-05-07T07:43:06;3.60;;;1.90;;
78838;SDS011;68405;47.190;27.558;2023-05-07T07:45:35;4.50;;;1.90;;
78838;SDS011;68405;47.190;27.558;2023-05-07T07:48:05;5.20;;;2.10;;
78838;SDS011;68405;47.190;27.558;2023-05-07T07:50:34;4.20;;;2.00;;
78838;SDS011;68405;47.190;27.558;2023-05-07T07:53:02;6.00;;;2.00;;
78838;SDS011;68405;47.190;27.558;2023-05-07T07:55:31;4.60;;;2.10;;
78838;SDS011;68405;47.190;27.558;2023-05-07T07:58:00;5.20;;;2.40;;
78838;SDS011;68405;47.190;27.558;2023-05-07T08:00:28;4.10;;;2.10;;
78838;SDS011;68405;47.190;27.558;2023-05-07T08:02:57;6.10;;;2.00;;
78838;SDS011;68405;47.190;27.558;2023-05-07T08:05:27;3.80;;;1.60;;
78838;SDS011;68405;47.190;27.558;2023-05-07T08:07:57;3.90;;;1.80;;
78838;SDS011;68405;47.190;27.558;2023-05-07T08:10:26;7.80;;;1.90;;
78838;SDS011;68405;47.190;27.558;2023-05-07T08:12:55;4.80;;;2.40;;
78838;SDS011;68405;47.190;27.558;2023-05-07T08:15:24;4.20;;;2.10;;
78838;SDS011;68405;47.190;27.558;2023-05-07T08:17:53;4.10;;;1.70;;
78838;SDS011;68405;47.190;27.558;2023-05-07T08:20:24;4.70;;;1.80;;
78838;SDS011;68405;47.190;27.558;2023-05-07T08:22:53;3.60;;;1.90;;
78838;SDS011;68405;47.190;27.558;2023-05-07T08:25:22;2.80;;;1.50;;
78838;SDS011;68405;47.190;27.558;2023-05-07T08:27:51;3.30;;;1.80;;
78838;SDS011;68405;47.190;27.558;2023-05-07T08:30:21;4.80;;;1.90;;
78838;SDS011;68405;47.190;27.558;2023-05-07T08:32:50;2.30;;;1.70;;
78838;SDS011;68405;47.190;27.558;2023-05-07T08:35:21;1.90;;;1.10;;
78838;SDS011;68405;47.190;27.558;2023-05-07T08:37:50;6.70;;;2.00;;
78838;SDS011;68405;47.190;27.558;2023-05-07T08:40:19;6.50;;;1.70;;
78838;SDS011;68405;47.190;27.558;2023-05-07T08:42:52;4.50;;;1.70;;
78838;SDS011;68405;47.190;27.558;2023-05-07T08:45:23;2.40;;;1.80;;
78838;SDS011;68405;47.190;27.558;2023-05-07T08:47:55;3.30;;;2.10;;
78838;SDS011;68405;47.190;27.558;2023-05-07T08:50:29;4.60;;;2.20;;
78838;SDS011;68405;47.190;27.558;2023-05-07T08:52:59;3.90;;;1.40;;
78838;SDS011;68405;47.190;27.558;2023-05-07T08:55:28;4.20;;;1.60;;
78838;SDS011;68405;47.190;27.558;2023-05-07T08:57:57;5.00;;;2.10;;
78838;SDS011;68405;47.190;27.558;2023-05-07T09:00:26;6.90;;;1.90;;
78838;SDS011;68405;47.190;27.558;2023-05-07T09:02:56;5.00;;;1.80;;
78838;SDS011;68405;47.190;27.558;2023-05-07T09:05:25;3.90;;;1.90;;
78838;SDS011;68405;47.190;27.558;2023-05-07T09:07:54;7.10;;;2.20;;
78838;SDS011;68405;47.190;27.558;2023-05-07T09:10:27;4.80;;;2.40;;
78838;SDS011;68405;47.190;27.558;2023-05-07T09:12:57;5.50;;;1.80;;
78838;SDS011;68405;47.190;27.558;2023-05-07T09:15:26;4.50;;;2.20;;
78838;SDS011;68405;47.190;27.558;2023-05-07T09:18:00;4.80;;;1.90;;
78838;SDS011;68405;47.190;27.558;2023-05-07T09:20:30;5.70;;;1.90;;
78838;SDS011;68405;47.190;27.558;2023-05-07T09:23:00;5.00;;;2.20;;
78838;SDS011;68405;47.190;27.558;2023-05-07T09:25:30;4.90;;;1.70;;
78838;SDS011;68405;47.190;27.558;2023-05-07T09:28:00;4.30;;;1.70;;
78838;SDS011;68405;47.190;27.558;2023-05-07T09:30:31;5.00;;;1.80;;
78838;SDS011;68405;47.190;27.558;2023-05-07T09:33:02;6.10;;;1.90;;
78838;SDS011;68405;47.190;27.558;2023-05-07T09:35:32;4.10;;;1.80;;
78838;SDS011;68405;47.190;27.558;2023-05-07T09:38:01;4.70;;;2.30;;
78838;SDS011;68405;47.190;27.558;2023-05-07T09:40:31;4.50;;;2.10;;
78838;SDS011;68405;47.190;27.558;2023-05-07T09:43:10;4.20;;;1.80;;
78838;SDS011;68405;47.190;27.558;2023-05-07T09:45:41;4.00;;;1.70;;
78838;SDS011;68405;47.190;27.558;2023-05-07T09:48:10;5.70;;;2.40;;
78838;SDS011;68405;47.190;27.558;2023-05-07T09:50:46;3.90;;;1.90;;
78838;SDS011;68405;47.190;27.558;2023-05-07T09:53:20;3.60;;;1.80;;
78838;SDS011;68405;47.190;27.558;2023-05-07T09:55:51;4.40;;;2.00;;
78838;SDS011;68405;47.190;27.558;2023-05-07T09:58:21;5.70;;;3.00;;
78838;SDS011;68405;47.190;27.558;2023-05-07T10:00:51;5.20;;;2.30;;
78838;SDS011;68405;47.190;27.558;2023-05-07T10:03:22;4.00;;;2.40;;
78838;SDS011;68405;47.190;27.558;2023-05-07T10:05:56;4.50;;;2.50;;
78838;SDS011;68405;47.190;27.558;2023-05-07T10:08:27;7.70;;;2.40;;
78838;SDS011;68405;47.190;27.558;2023-05-07T10:10:57;5.40;;;2.60;;
78838;SDS011;68405;47.190;27.558;2023-05-07T10:13:27;3.80;;;2.20;;
78838;SDS011;68405;47.190;27.558;2023-05-07T10:15:57;4.90;;;2.10;;
78838;SDS011;68405;47.190;27.558;2023-05-07T10:18:27;6.60;;;2.60;;
78838;SDS011;68405;47.190;27.558;2023-05-07T10:21:01;6.90;;;3.20;;
78838;SDS011;68405;47.190;27.558;2023-05-07T10:23:35;8.10;;;3.70;;
78838;SDS011;68405;47.190;27.558;2023-05-07T10:26:06;4.40;;;2.20;;
78838;SDS011;68405;47.190;27.558;2023-05-07T10:28:38;4.20;;;2.20;;
78838;SDS011;68405;47.190;27.558;2023-05-07T10:31:10;4.20;;;2.90;;
78838;SDS011;68405;47.190;27.558;2023-05-07T10:34:02;7.20;;;3.20;;
78838;SDS011;68405;47.190;27.558;2023-05-07T10:36:38;8.80;;;3.10;;
78838;SDS011;68405;47.190;27.558;2023-05-07T10:39:08;5.40;;;2.60;;
78838;SDS011;68405;47.190;27.558;2023-05-07T10:41:37;4.40;;;2.40;;
78838;SDS011;68405;47.190;27.558;2023-05-07T10:44:06;6.90;;;2.60;;
78838;SDS011;68405;47.190;27.558;2023-05-07T10:46:35;7.00;;;3.20;;
78838;SDS011;68405;47.190;27.558;2023-05-07T10:49:08;4.00;;;2.70;;
78838;SDS011;68405;47.190;27.558;2023-05-07T10:51:39;6.70;;;2.80;;
78838;SDS011;68405;47.190;27.558;2023-05-07T10:54:21;4.40;;;2.70;;
78838;SDS011;68405;47.190;27.558;2023-05-07T10:56:53;4.30;;;2.40;;
78838;SDS011;68405;47.190;27.558;2023-05-07T10:59:35;6.00;;;2.50;;
78838;SDS011;68405;47.190;27.558;2023-05-07T11:02:09;4.10;;;2.40;;
78838;SDS011;68405;47.190;27.558;2023-05-07T11:04:41;5.70;;;2.60;;
78838;SDS011;68405;47.190;27.558;2023-05-07T11:10:00;5.70;;;2.40;;
78838;SDS011;68405;47.190;27.558;2023-05-07T11:12:47;4.70;;;2.50;;
78838;SDS011;68405;47.190;27.558;2023-05-07T11:15:42;4.60;;;2.50;;
78838;SDS011;68405;47.190;27.558;2023-05-07T11:18:13;4.70;;;2.30;;
78838;SDS011;68405;47.190;27.558;2023-05-07T11:26:27;2.20;;;1.50;;
78838;SDS011;68405;47.190;27.558;2023-05-07T11:28:58;4.30;;;2.00;;
78838;SDS011;68405;47.190;27.558;2023-05-07T11:31:27;4.00;;;2.20;;
78838;SDS011;68405;47.190;27.558;2023-05-07T11:33:56;6.30;;;2.60;;
78838;SDS011;68405;47.190;27.558;2023-05-07T11:36:26;6.40;;;2.20;;
78838;SDS011;68405;47.190;27.558;2023-05-07T11:38:58;2.70;;;1.70;;
78838;SDS011;68405;47.190;27.558;2023-05-07T11:41:34;5.30;;;2.30;;
78838;SDS011;68405;47.190;27.558;2023-05-07T11:44:04;4.60;;;2.20;;
78838;SDS011;68405;47.190;27.558;2023-05-07T11:46:33;5.50;;;2.30;;
78838;SDS011;68405;47.190;27.558;2023-05-07T11:49:02;4.80;;;2.20;;
78838;SDS011;68405;47.190;27.558;2023-05-07T11:51:31;3.50;;;2.40;;
78838;SDS011;68405;47.190;27.558;2023-05-07T11:54:03;3.80;;;2.20;;
78838;SDS011;68405;47.190;27.558;2023-05-07T11:56:35;5.10;;;2.20;;
78838;SDS011;68405;47.190;27.558;2023-05-07T11:59:04;5.10;;;1.70;;
78838;SDS011;68405;47.190;27.558;2023-05-07T12:01:34;3.50;;;2.00;;
78838;SDS011;68405;47.190;27.558;2023-05-07T12:04:04;3.70;;;2.10;;
78838;SDS011;68405;47.190;27.558;2023-05-07T12:06:37;4.30;;;2.40;;
78838;SDS011;68405;47.190;27.558;2023-05-07T12:09:06;4.70;;;2.40;;
78838;SDS011;68405;47.190;27.558;2023-05-07T12:11:38;6.80;;;1.90;;
78838;SDS011;68405;47.190;27.558;2023-05-07T12:14:07;5.40;;;2.00;;
78838;SDS011;68405;47.190;27.558;2023-05-07T12:16:36;3.10;;;1.90;;
78838;SDS011;68405;47.190;27.558;2023-05-07T12:19:06;3.70;;;2.10;;
78838;SDS011;68405;47.190;27.558;2023-05-07T12:21:39;2.30;;;1.50;;
78838;SDS011;68405;47.190;27.558;2023-05-07T12:24:08;3.60;;;1.70;;
78838;SDS011;68405;47.190;27.558;2023-05-07T12:26:38;3.90;;;1.80;;
78838;SDS011;68405;47.190;27.558;2023-05-07T12:29:08;4.10;;;1.60;;
78838;SDS011;68405;47.190;27.558;2023-05-07T12:31:37;3.10;;;2.20;;
78838;SDS011;68405;47.190;27.558;2023-05-07T12:34:11;3.90;;;1.90;;
78838;SDS011;68405;47.190;27.558;2023-05-07T12:36:40;5.40;;;2.20;;
78838;SDS011;68405;47.190;27.558;2023-05-07T12:39:09;2.70;;;1.70;;
78838;SDS011;68405;47.190;27.558;2023-05-07T12:44:23;3.50;;;1.90;;
78838;SDS011;68405;47.190;27.558;2023-05-07T12:46:52;2.70;;;1.70;;
78838;SDS011;68405;47.190;27.558;2023-05-07T12:49:22;4.80;;;2.00;;
78838;SDS011;68405;47.190;27.558;2023-05-07T12:51:52;3.30;;;2.00;;
78838;SDS011;68405;47.190;27.558;2023-05-07T12:54:29;6.20;;;2.50;;
78838;SDS011;68405;47.190;27.558;2023-05-07T12:57:02;4.30;;;2.50;;
78838;SDS011;68405;47.190;27.558;2023-05-07T12:59:33;4.60;;;2.00;;
78838;SDS011;68405;47.190;27.558;2023-05-07T13:02:03;5.00;;;2.70;;
78838;SDS011;68405;47.190;27.558;2023-05-07T13:04:33;5.70;;;2.20;;
78838;SDS011;68405;47.190;27.558;2023-05-07T13:07:03;4.60;;;2.70;;
78838;SDS011;68405;47.190;27.558;2023-05-07T13:09:31;2.80;;;1.70;;
78838;SDS011;68405;47.190;27.558;2023-05-07T13:12:01;3.60;;;2.10;;
78838;SDS011;68405;47.190;27.558;2023-05-07T13:14:30;4.60;;;1.60;;
78838;SDS011;68405;47.190;27.558;2023-05-07T13:16:59;4.30;;;2.50;;
78838;SDS011;68405;47.190;27.558;2023-05-07T13:19:28;5.80;;;2.70;;
78838;SDS011;68405;47.190;27.558;2023-05-07T13:21:57;3.60;;;1.90;;
78838;SDS011;68405;47.190;27.558;2023-05-07T13:24:26;4.20;;;2.40;;
78838;SDS011;68405;47.190;27.558;2023-05-07T13:26:55;5.10;;;2.50;;
78838;SDS011;68405;47.190;27.558;2023-05-07T13:29:24;6.70;;;2.50;;
78838;SDS011;68405;47.190;27.558;2023-05-07T13:31:56;4.30;;;2.40;;
78838;SDS011;68405;47.190;27.558;2023-05-07T13:34:25;4.40;;;2.30;;
78838;SDS011;68405;47.190;27.558;2023-05-07T13:36:55;5.20;;;2.10;;
78838;SDS011;68405;47.190;27.558;2023-05-07T13:39:25;3.30;;;2.00;;
78838;SDS011;68405;47.190;27.558;2023-05-07T13:41:54;4.20;;;2.10;;
78838;SDS011;68405;47.190;27.558;2023-05-07T13:44:22;4.90;;;2.40;;
78838;SDS011;68405;47.190;27.558;2023-05-07T13:46:51;3.50;;;2.50;;
78838;SDS011;68405;47.190;27.558;2023-05-07T13:49:20;4.40;;;2.50;;
78838;SDS011;68405;47.190;27.558;2023-05-07T13:51:49;4.90;;;2.70;;
78838;SDS011;68405;47.190;27.558;2023-05-07T13:54:18;6.50;;;2.60;;
78838;SDS011;68405;47.190;27.558;2023-05-07T13:56:48;8.00;;;2.60;;
78838;SDS011;68405;47.190;27.558;2023-05-07T13:59:16;4.10;;;2.70;;
78838;SDS011;68405;47.190;27.558;2023-05-07T14:01:45;8.30;;;3.20;;
78838;SDS011;68405;47.190;27.558;2023-05-07T14:04:14;6.20;;;2.90;;
78838;SDS011;68405;47.190;27.558;2023-05-07T14:06:44;4.20;;;2.50;;
78838;SDS011;68405;47.190;27.558;2023-05-07T14:09:13;4.00;;;2.70;;
78838;SDS011;68405;47.190;27.558;2023-05-07T14:11:42;6.20;;;2.80;;
78838;SDS011;68405;47.190;27.558;2023-05-07T14:14:11;9.20;;;3.00;;
78838;SDS011;68405;47.190;27.558;2023-05-07T14:16:40;10.70;;;5.30;;
78838;SDS011;68405;47.190;27.558;2023-05-07T14:19:10;9.40;;;5.20;;
78838;SDS011;68405;47.190;27.558;2023-05-07T14:21:39;11.70;;;4.80;;
78838;SDS011;68405;47.190;27.558;2023-05-07T14:24:08;8.60;;;3.40;;
78838;SDS011;68405;47.190;27.558;2023-05-07T14:26:37;8.80;;;4.20;;
78838;SDS011;68405;47.190;27.558;2023-05-07T14:29:06;8.10;;;3.70;;
78838;SDS011;68405;47.190;27.558;2023-05-07T14:31:35;6.60;;;3.10;;
78838;SDS011;68405;47.190;27.558;2023-05-07T14:34:04;6.50;;;3.50;;
78838;SDS011;68405;47.190;27.558;2023-05-07T14:36:33;5.80;;;3.70;;
78838;SDS011;68405;47.190;27.558;2023-05-07T14:39:02;6.90;;;3.20;;
78838;SDS011;68405;47.190;27.558;2023-05-07T14:41:31;5.60;;;3.30;;
78838;SDS011;68405;47.190;27.558;2023-05-07T14:44:00;14.80;;;4.10;;
78838;SDS011;68405;47.190;27.558;2023-05-07T14:46:30;5.30;;;3.90;;
78838;SDS011;68405;47.190;27.558;2023-05-07T14:48:59;7.50;;;4.60;;
78838;SDS011;68405;47.190;27.558;2023-05-07T14:51:29;9.00;;;5.70;;
78838;SDS011;68405;47.190;27.558;2023-05-07T14:53:59;8.20;;;5.50;;
78838;SDS011;68405;47.190;27.558;2023-05-07T14:56:28;7.90;;;4.80;;
78838;SDS011;68405;47.190;27.558;2023-05-07T14:58:58;10.50;;;5.10;;
78838;SDS011;68405;47.190;27.558;2023-05-07T15:01:27;6.90;;;4.40;;
78838;SDS011;68405;47.190;27.558;2023-05-07T15:03:56;7.40;;;4.10;;
78838;SDS011;68405;47.190;27.558;2023-05-07T15:06:25;6.00;;;4.40;;
78838;SDS011;68405;47.190;27.558;2023-05-07T15:08:54;7.00;;;4.40;;
78838;SDS011;68405;47.190;27.558;2023-05-07T15:11:23;7.90;;;4.70;;
78838;SDS011;68405;47.190;27.558;2023-05-07T15:13:52;7.00;;;4.20;;
78838;SDS011;68405;47.190;27.558;2023-05-07T15:16:21;6.40;;;4.60;;
78838;SDS011;68405;47.190;27.558;2023-05-07T15:18:50;6.30;;;4.90;;
78838;SDS011;68405;47.190;27.558;2023-05-07T15:21:19;9.00;;;4.70;;
78838;SDS011;68405;47.190;27.558;2023-05-07T15:23:49;7.00;;;4.20;;
78838;SDS011;68405;47.190;27.558;2023-05-07T15:26:17;4.80;;;3.90;;
78838;SDS011;68405;47.190;27.558;2023-05-07T15:28:47;6.20;;;3.90;;
78838;SDS011;68405;47.190;27.558;2023-05-07T15:31:16;7.20;;;3.90;;
78838;SDS011;68405;47.190;27.558;2023-05-07T15:33:45;6.40;;;3.90;;
78838;SDS011;68405;47.190;27.558;2023-05-07T15:36:14;6.10;;;3.90;;
78838;SDS011;68405;47.190;27.558;2023-05-07T15:38:43;5.50;;;3.60;;
78838;SDS011;68405;47.190;27.558;2023-05-07T15:41:12;6.90;;;3.80;;
78838;SDS011;68405;47.190;27.558;2023-05-07T15:43:44;5.70;;;4.10;;
78838;SDS011;68405;47.190;27.558;2023-05-07T15:46:18;7.10;;;4.50;;
78838;SDS011;68405;47.190;27.558;2023-05-07T15:48:47;6.70;;;4.40;;
78838;SDS011;68405;47.190;27.558;2023-05-07T15:51:17;6.90;;;4.60;;
78838;SDS011;68405;47.190;27.558;2023-05-07T15:53:46;7.30;;;4.50;;
78838;SDS011;68405;47.190;27.558;2023-05-07T15:56:16;7.10;;;4.20;;
78838;SDS011;68405;47.190;27.558;2023-05-07T15:58:45;6.60;;;4.30;;
78838;SDS011;68405;47.190;27.558;2023-05-07T16:01:15;7.10;;;4.50;;
78838;SDS011;68405;47.190;27.558;2023-05-07T16:03:44;6.90;;;5.20;;
78838;SDS011;68405;47.190;27.558;2023-05-07T16:06:13;6.70;;;5.00;;
78838;SDS011;68405;47.190;27.558;2023-05-07T16:08:42;10.40;;;4.70;;
78838;SDS011;68405;47.190;27.558;2023-05-07T16:11:11;8.30;;;5.20;;
78838;SDS011;68405;47.190;27.558;2023-05-07T16:13:40;8.50;;;4.60;;
78838;SDS011;68405;47.190;27.558;2023-05-07T16:16:08;5.10;;;3.90;;
78838;SDS011;68405;47.190;27.558;2023-05-07T16:18:38;8.80;;;5.20;;
78838;SDS011;68405;47.190;27.558;2023-05-07T16:21:07;6.60;;;4.20;;
78838;SDS011;68405;47.190;27.558;2023-05-07T16:23:36;8.20;;;6.00;;
78838;SDS011;68405;47.190;27.558;2023-05-07T16:26:05;6.80;;;4.90;;
78838;SDS011;68405;47.190;27.558;2023-05-07T16:28:34;9.50;;;6.60;;
78838;SDS011;68405;47.190;27.558;2023-05-07T16:31:03;5.00;;;4.40;;
78838;SDS011;68405;47.190;27.558;2023-05-07T16:33:35;6.60;;;4.40;;
78838;SDS011;68405;47.190;27.558;2023-05-07T16:36:04;6.60;;;4.50;;
78838;SDS011;68405;47.190;27.558;2023-05-07T16:38:34;7.20;;;4.60;;
78838;SDS011;68405;47.190;27.558;2023-05-07T16:41:04;6.80;;;4.50;;
78838;SDS011;68405;47.190;27.558;2023-05-07T16:43:33;7.40;;;5.20;;
78838;SDS011;68405;47.190;27.558;2023-05-07T16:46:02;8.90;;;5.50;;
78838;SDS011;68405;47.190;27.558;2023-05-07T16:48:31;6.20;;;4.30;;
78838;SDS011;68405;47.190;27.558;2023-05-07T16:50:59;9.40;;;5.90;;
78838;SDS011;68405;47.190;27.558;2023-05-07T16:53:28;8.60;;;4.90;;
78838;SDS011;68405;47.190;27.558;2023-05-07T16:55:57;8.10;;;4.60;;
78838;SDS011;68405;47.190;27.558;2023-05-07T16:58:25;9.10;;;4.90;;
78838;SDS011;68405;47.190;27.558;2023-05-07T17:00:56;7.30;;;4.30;;
78838;SDS011;68405;47.190;27.558;2023-05-07T17:03:32;8.90;;;4.50;;
78838;SDS011;68405;47.190;27.558;2023-05-07T17:06:06;7.30;;;4.70;;
78838;SDS011;68405;47.190;27.558;2023-05-07T17:08:39;7.50;;;4.70;;
78838;SDS011;68405;47.190;27.558;2023-05-07T17:11:09;5.60;;;4.20;;
78838;SDS011;68405;47.190;27.558;2023-05-07T17:13:38;8.60;;;4.80;;
78838;SDS011;68405;47.190;27.558;2023-05-07T17:16:07;6.40;;;4.90;;
78838;SDS011;68405;47.190;27.558;2023-05-07T17:18:35;11.10;;;4.50;;
78838;SDS011;68405;47.190;27.558;2023-05-07T17:21:04;5.10;;;4.10;;
78838;SDS011;68405;47.190;27.558;2023-05-07T17:23:33;7.00;;;4.50;;
78838;SDS011;68405;47.190;27.558;2023-05-07T17:26:02;8.20;;;5.50;;
78838;SDS011;68405;47.190;27.558;2023-05-07T17:28:38;9.00;;;5.20;;
78838;SDS011;68405;47.190;27.558;2023-05-07T17:31:07;7.80;;;5.50;;
78838;SDS011;68405;47.190;27.558;2023-05-07T17:33:36;9.40;;;5.50;;
78838;SDS011;68405;47.190;27.558;2023-05-07T17:36:05;8.80;;;5.30;;
78838;SDS011;68405;47.190;27.558;2023-05-07T17:38:34;11.60;;;6.20;;
78838;SDS011;68405;47.190;27.558;2023-05-07T17:41:03;8.90;;;6.30;;
78838;SDS011;68405;47.190;27.558;2023-05-07T17:43:32;10.40;;;6.80;;
78838;SDS011;68405;47.190;27.558;2023-05-07T17:46:00;9.10;;;6.80;;
78838;SDS011;68405;47.190;27.558;2023-05-07T17:48:29;7.20;;;5.50;;
78838;SDS011;68405;47.190;27.558;2023-05-07T17:51:01;8.60;;;5.60;;
78838;SDS011;68405;47.190;27.558;2023-05-07T17:53:30;8.60;;;5.60;;
78838;SDS011;68405;47.190;27.558;2023-05-07T17:55:59;9.80;;;6.00;;
78838;SDS011;68405;47.190;27.558;2023-05-07T17:58:28;7.10;;;5.90;;
78838;SDS011;68405;47.190;27.558;2023-05-07T18:00:57;10.10;;;5.80;;
78838;SDS011;68405;47.190;27.558;2023-05-07T18:03:26;9.40;;;5.80;;
78838;SDS011;68405;47.190;27.558;2023-05-07T18:05:55;10.50;;;5.70;;
78838;SDS011;68405;47.190;27.558;2023-05-07T18:08:24;9.20;;;6.20;;
78838;SDS011;68405;47.190;27.558;2023-05-07T18:10:53;8.10;;;5.70;;
78838;SDS011;68405;47.190;27.558;2023-05-07T18:13:21;7.30;;;5.40;;
78838;SDS011;68405;47.190;27.558;2023-05-07T18:15:50;8.50;;;5.50;;
78838;SDS011;68405;47.190;27.558;2023-05-07T18:18:19;9.60;;;5.80;;
78838;SDS011;68405;47.190;27.558;2023-05-07T18:20:49;8.10;;;5.90;;
78838;SDS011;68405;47.190;27.558;2023-05-07T18:23:18;6.70;;;5.00;;
78838;SDS011;68405;47.190;27.558;2023-05-07T18:25:47;6.80;;;5.10;;
78838;SDS011;68405;47.190;27.558;2023-05-07T18:28:16;7.50;;;5.60;;
78838;SDS011;68405;47.190;27.558;2023-05-07T18:30:45;11.20;;;6.70;;
78838;SDS011;68405;47.190;27.558;2023-05-07T18:33:13;9.60;;;6.00;;
78838;SDS011;68405;47.190;27.558;2023-05-07T18:35:42;10.00;;;5.80;;
78838;SDS011;68405;47.190;27.558;2023-05-07T18:38:11;8.00;;;5.70;;
78838;SDS011;68405;47.190;27.558;2023-05-07T18:40:40;9.60;;;5.80;;
78838;SDS011;68405;47.190;27.558;2023-05-07T18:43:10;8.90;;;6.20;;
78838;SDS011;68405;47.190;27.558;2023-05-07T18:45:39;9.40;;;5.70;;
78838;SDS011;68405;47.190;27.558;2023-05-07T18:48:08;8.80;;;5.80;;
78838;SDS011;68405;47.190;27.558;2023-05-07T18:50:37;7.90;;;5.80;;
78838;SDS011;68405;47.190;27.558;2023-05-07T18:53:09;9.50;;;6.40;;
78838;SDS011;68405;47.190;27.558;2023-05-07T18:55:38;7.60;;;5.80;;
78838;SDS011;68405;47.190;27.558;2023-05-07T18:58:07;13.50;;;6.00;;
78838;SDS011;68405;47.190;27.558;2023-05-07T19:00:36;10.90;;;6.10;;
78838;SDS011;68405;47.190;27.558;2023-05-07T19:03:05;8.10;;;6.00;;
78838;SDS011;68405;47.190;27.558;2023-05-07T19:05:34;6.70;;;5.20;;
78838;SDS011;68405;47.190;27.558;2023-05-07T19:08:03;7.70;;;5.50;;
78838;SDS011;68405;47.190;27.558;2023-05-07T19:10:32;9.90;;;5.80;;
78838;SDS011;68405;47.190;27.558;2023-05-07T19:13:01;8.60;;;5.90;;
78838;SDS011;68405;47.190;27.558;2023-05-07T19:15:30;9.10;;;5.60;;
78838;SDS011;68405;47.190;27.558;2023-05-07T19:17:59;8.80;;;5.80;;
78838;SDS011;68405;47.190;27.558;2023-05-07T19:20:28;8.40;;;5.50;;
78838;SDS011;68405;47.190;27.558;2023-05-07T19:22:58;9.40;;;6.60;;
78838;SDS011;68405;47.190;27.558;2023-05-07T19:25:27;11.00;;;6.00;;
78838;SDS011;68405;47.190;27.558;2023-05-07T19:27:56;7.70;;;5.90;;
78838;SDS011;68405;47.190;27.558;2023-05-07T19:30:25;9.00;;;5.90;;
78838;SDS011;68405;47.190;27.558;2023-05-07T19:32:54;6.70;;;5.10;;
78838;SDS011;68405;47.190;27.558;2023-05-07T19:35:25;7.20;;;5.60;;
78838;SDS011;68405;47.190;27.558;2023-05-07T19:37:54;9.20;;;5.00;;
78838;SDS011;68405;47.190;27.558;2023-05-07T19:40:23;7.80;;;5.50;;
78838;SDS011;68405;47.190;27.558;2023-05-07T19:42:52;7.90;;;5.40;;
78838;SDS011;68405;47.190;27.558;2023-05-07T19:45:22;6.50;;;5.40;;
78838;SDS011;68405;47.190;27.558;2023-05-07T19:47:51;7.10;;;4.90;;
78838;SDS011;68405;47.190;27.558;2023-05-07T19:50:20;11.20;;;6.70;;
78838;SDS011;68405;47.190;27.558;2023-05-07T19:52:49;5.80;;;4.70;;
78838;SDS011;68405;47.190;27.558;2023-05-07T19:55:18;7.60;;;4.50;;
78838;SDS011;68405;47.190;27.558;2023-05-07T19:57:47;6.70;;;4.40;;
78838;SDS011;68405;47.190;27.558;2023-05-07T20:00:16;7.80;;;5.30;;
78838;SDS011;68405;47.190;27.558;2023-05-07T20:02:47;9.60;;;4.80;;
78838;SDS011;68405;47.190;27.558;2023-05-07T20:05:16;10.90;;;5.70;;
78838;SDS011;68405;47.190;27.558;2023-05-07T20:07:47;8.60;;;4.70;;
78838;SDS011;68405;47.190;27.558;2023-05-07T20:10:15;6.20;;;5.20;;
78838;SDS011;68405;47.190;27.558;2023-05-07T20:12:44;8.20;;;4.90;;
78838;SDS011;68405;47.190;27.558;2023-05-07T20:15:14;7.00;;;4.80;;
78838;SDS011;68405;47.190;27.558;2023-05-07T20:17:42;5.70;;;3.90;;
78838;SDS011;68405;47.190;27.558;2023-05-07T20:20:12;7.70;;;4.40;;
78838;SDS011;68405;47.190;27.558;2023-05-07T20:22:41;7.00;;;4.50;;
78838;SDS011;68405;47.190;27.558;2023-05-07T20:25:10;7.30;;;4.70;;
78838;SDS011;68405;47.190;27.558;2023-05-07T20:27:40;6.20;;;4.00;;
78838;SDS011;68405;47.190;27.558;2023-05-07T20:30:10;5.90;;;4.60;;
78838;SDS011;68405;47.190;27.558;2023-05-07T20:32:40;6.00;;;4.20;;
78838;SDS011;68405;47.190;27.558;2023-05-07T20:35:09;7.80;;;4.60;;
78838;SDS011;68405;47.190;27.558;2023-05-07T20:37:39;6.20;;;4.70;;
78838;SDS011;68405;47.190;27.558;2023-05-07T20:40:08;7.00;;;4.20;;
78838;SDS011;68405;47.190;27.558;2023-05-07T20:42:38;6.50;;;4.40;;
78838;SDS011;68405;47.190;27.558;2023-05-07T20:45:09;5.90;;;4.00;;
78838;SDS011;68405;47.190;27.558;2023-05-07T20:47:38;7.10;;;4.10;;
78838;SDS011;68405;47.190;27.558;2023-05-07T20:50:08;6.20;;;4.10;;
78838;SDS011;68405;47.190;27.558;2023-05-07T20:52:38;7.10;;;4.10;;
78838;SDS011;68405;47.190;27.558;2023-05-07T20:55:08;5.90;;;4.10;;
78838;SDS011;68405;47.190;27.558;2023-05-07T20:57:37;5.40;;;3.40;;
78838;SDS011;68405;47.190;27.558;2023-05-07T21:00:07;6.40;;;4.10;;
78838;SDS011;68405;47.190;27.558;2023-05-07T21:02:37;5.00;;;3.50;;
78838;SDS011;68405;47.190;27.558;2023-05-07T21:05:06;6.50;;;4.40;;
78838;SDS011;68405;47.190;27.558;2023-05-07T21:07:36;5.70;;;3.80;;
78838;SDS011;68405;47.190;27.558;2023-05-07T21:10:05;7.30;;;3.60;;
78838;SDS011;68405;47.190;27.558;2023-05-07T21:12:36;6.10;;;3.90;;
78838;SDS011;68405;47.190;27.558;2023-05-07T21:15:07;5.60;;;3.70;;
78838;SDS011;68405;47.190;27.558;2023-05-07T21:17:37;5.90;;;4.00;;
78838;SDS011;68405;47.190;27.558;2023-05-07T21:20:07;9.20;;;3.70;;
78838;SDS011;68405;47.190;27.558;2023-05-07T21:22:36;5.30;;;3.80;;
78838;SDS011;68405;47.190;27.558;2023-05-07T21:25:06;6.00;;;4.10;;
78838;SDS011;68405;47.190;27.558;2023-05-07T21:27:36;6.80;;;4.20;;
78838;SDS011;68405;47.190;27.558;2023-05-07T21:30:06;6.80;;;4.00;;
78838;SDS011;68405;47.190;27.558;2023-05-07T21:32:37;6.40;;;3.90;;
78838;SDS011;68405;47.190;27.558;2023-05-07T21:35:07;5.70;;;4.10;;
78838;SDS011;68405;47.190;27.558;2023-05-07T21:37:36;8.70;;;4.30;;
78838;SDS011;68405;47.190;27.558;2023-05-07T21:40:06;6.80;;;4.50;;
78838;SDS011;68405;47.190;27.558;2023-05-07T21:42:36;5.20;;;4.00;;
78838;SDS011;68405;47.190;27.558;2023-05-07T21:45:06;5.60;;;3.70;;
78838;SDS011;68405;47.190;27.558;2023-05-07T21:47:36;4.10;;;3.50;;
78838;SDS011;68405;47.190;27.558;2023-05-07T21:50:06;6.30;;;4.50;;
78838;SDS011;68405;47.190;27.558;2023-05-07T21:52:35;6.10;;;4.10;;
78838;SDS011;68405;47.190;27.558;2023-05-07T21:55:06;8.80;;;4.30;;
78838;SDS011;68405;47.190;27.558;2023-05-07T21:57:35;5.90;;;4.20;;
78838;SDS011;68405;47.190;27.558;2023-05-07T22:00:07;5.10;;;3.60;;
78838;SDS011;68405;47.190;27.558;2023-05-07T22:02:38;6.90;;;4.10;;
78838;SDS011;68405;47.190;27.558;2023-05-07T22:05:07;5.40;;;4.10;;
78838;SDS011;68405;47.190;27.558;2023-05-07T22:07:37;5.70;;;3.90;;
78838;SDS011;68405;47.190;27.558;2023-05-07T22:10:07;5.80;;;3.90;;
78838;SDS011;68405;47.190;27.558;2023-05-07T22:12:36;4.80;;;3.50;;
78838;SDS011;68405;47.190;27.558;2023-05-07T22:15:07;5.10;;;3.60;;
78838;SDS011;68405;47.190;27.558;2023-05-07T22:17:37;5.60;;;3.70;;
78838;SDS011;68405;47.190;27.558;2023-05-07T22:20:07;6.30;;;4.10;;
78838;SDS011;68405;47.190;27.558;2023-05-07T22:22:45;10.50;;;5.10;;
78838;SDS011;68405;47.190;27.558;2023-05-07T22:25:15;5.80;;;3.70;;
78838;SDS011;68405;47.190;27.558;2023-05-07T22:27:43;3.80;;;3.30;;
78838;SDS011;68405;47.190;27.558;2023-05-07T22:30:13;5.00;;;3.40;;
78838;SDS011;68405;47.190;27.558;2023-05-07T22:32:42;6.10;;;3.80;;
78838;SDS011;68405;47.190;27.558;2023-05-07T22:35:11;6.00;;;3.70;;